createdAt,value
2018-11-10T00:00:44.023Z,27.37
2018-11-10T00:03:17.627Z,26.93
2018-11-10T00:05:53.682Z,26.87
2018-11-10T00:08:28.826Z,27.90
2018-11-10T00:11:03.750Z,27.07
2018-11-10T00:13:39.803Z,28.50
2018-11-10T00:16:16.682Z,27.07
2018-11-10T00:18:51.512Z,28.87
2018-11-10T00:21:27.203Z,28.90
2018-11-10T00:24:02.808Z,27.43
2018-11-10T00:26:36.817Z,29.93
2018-11-10T00:29:11.444Z,26.83
2018-11-10T00:31:46.883Z,27.23
2018-11-10T00:34:22.735Z,26.37
2018-11-10T00:36:58.794Z,28.33
2018-11-10T00:39:36.693Z,30.10
2018-11-10T00:42:24.476Z,26.70
2018-11-10T00:45:03.767Z,26.73
2018-11-10T00:47:39.815Z,27.30
2018-11-10T00:50:17.725Z,25.87
2018-11-10T00:52:54.800Z,23.53
2018-11-10T00:55:29.835Z,22.03
2018-11-10T00:58:06.707Z,23.03
2018-11-10T01:00:41.744Z,23.97
2018-11-10T01:03:16.777Z,23.60
2018-11-10T01:05:51.814Z,25.50
2018-11-10T01:08:28.245Z,24.07
2018-11-10T01:11:03.720Z,25.17
2018-11-10T01:13:40.802Z,25.10
2018-11-10T01:16:15.834Z,24.07
2018-11-10T01:18:51.485Z,25.27
2018-11-10T01:21:28.974Z,24.13
2018-11-10T01:24:04.829Z,22.23
2018-11-10T01:26:39.858Z,23.90
2018-11-10T01:29:16.735Z,24.43
2018-11-10T01:31:52.792Z,22.23
2018-11-10T01:34:28.238Z,22.40
2018-11-10T01:37:03.885Z,23.47
2018-11-10T01:39:39.739Z,23.83
2018-11-10T01:42:17.272Z,21.47
2018-11-10T01:44:52.877Z,21.57
2018-11-10T01:47:28.731Z,21.73
2018-11-10T01:50:03.760Z,20.37
2018-11-10T01:52:39.818Z,21.73
2018-11-10T01:55:14.852Z,23.57
2018-11-10T01:57:49.684Z,24.77
2018-11-10T02:00:26.562Z,22.00
2018-11-10T02:03:02.823Z,23.03
2018-11-10T02:05:52.607Z,21.73
2018-11-10T02:08:27.840Z,24.20
2018-11-10T02:11:03.692Z,23.77
2018-11-10T02:13:39.750Z,23.73
2018-11-10T02:16:15.804Z,23.40
2018-11-10T02:18:50.841Z,25.23
2018-11-10T02:21:26.690Z,24.27
2018-11-10T02:24:01.319Z,22.37
2018-11-10T02:26:36.758Z,21.47
2018-11-10T02:29:12.815Z,22.27
2018-11-10T02:31:48.882Z,21.77
2018-11-10T02:34:24.273Z,21.50
2018-11-10T02:36:58.739Z,23.20
2018-11-10T02:39:33.776Z,22.37
2018-11-10T02:42:09.827Z,23.03
2018-11-10T02:44:44.862Z,21.67
2018-11-10T02:47:22.762Z,22.37
2018-11-10T02:49:59.644Z,23.87
2018-11-10T02:52:34.888Z,24.63
2018-11-10T02:55:11.753Z,22.90
2018-11-10T02:57:46.789Z,22.50
2018-11-10T03:00:22.845Z,22.63
2018-11-10T03:02:58.497Z,23.27
2018-11-10T03:05:34.753Z,23.27
2018-11-10T03:08:11.838Z,23.43
2018-11-10T03:10:48.364Z,23.73
2018-11-10T03:13:24.769Z,22.03
2018-11-10T03:15:58.784Z,22.67
2018-11-10T03:18:34.634Z,24.57
2018-11-10T03:21:09.873Z,22.53
2018-11-10T03:23:45.520Z,23.03
2018-11-10T03:26:21.782Z,21.93
2018-11-10T03:28:56.817Z,21.00
2018-11-10T03:31:32.258Z,20.23
2018-11-10T03:34:06.887Z,21.60
2018-11-10T03:36:41.711Z,21.07
2018-11-10T03:39:18.791Z,20.70
2018-11-10T03:41:54.861Z,22.43
2018-11-10T03:44:30.707Z,19.37
2018-11-10T03:47:08.813Z,18.80
2018-11-10T03:49:44.866Z,20.07
2018-11-10T03:52:20.717Z,19.03
2018-11-10T03:54:57.802Z,20.17
2018-11-10T03:57:31.813Z,20.90
2018-11-10T04:00:07.054Z,19.80
2018-11-10T04:02:43.724Z,20.20
2018-11-10T04:05:20.395Z,20.53
2018-11-10T04:07:57.266Z,20.20
2018-11-10T04:10:31.895Z,19.37
2018-11-10T04:13:08.323Z,20.37
2018-11-10T04:15:43.802Z,20.73
2018-11-10T04:18:18.837Z,21.63
2018-11-10T04:20:54.893Z,21.33
2018-11-10T04:23:30.132Z,20.67
2018-11-10T04:26:06.804Z,22.70
2018-11-10T04:28:40.813Z,20.97
2018-11-10T04:31:15.643Z,22.43
2018-11-10T04:33:51.907Z,21.17
2018-11-10T04:36:26.941Z,20.70
2018-11-10T04:39:04.326Z,21.07
2018-11-10T04:41:38.848Z,21.70
2018-11-10T04:44:13.882Z,22.13
2018-11-10T04:46:48.913Z,22.03
2018-11-10T04:49:24.766Z,21.57
2018-11-10T04:51:59.800Z,23.87
2018-11-10T04:54:34.016Z,24.07
2018-11-10T04:57:08.639Z,24.40
2018-11-10T04:59:42.850Z,23.60
2018-11-10T05:02:18.910Z,22.90
2018-11-10T05:04:54.150Z,22.30
2018-11-10T05:07:28.980Z,22.87
2018-11-10T05:10:03.810Z,22.33
2018-11-10T05:12:39.252Z,22.03
2018-11-10T05:15:15.921Z,21.03
2018-11-10T05:17:51.160Z,18.40
2018-11-10T05:20:24.760Z,18.57
2018-11-10T05:22:58.973Z,17.33
2018-11-10T05:25:34.827Z,19.57
2018-11-10T05:28:10.338Z,19.60
2018-11-10T05:30:44.896Z,19.70
2018-11-10T05:33:19.927Z,19.83
2018-11-10T05:35:54.758Z,19.50
2018-11-10T05:38:30.811Z,19.43
2018-11-10T05:41:07.281Z,19.10
2018-11-10T05:43:43.135Z,19.57
2018-11-10T05:46:18.345Z,18.43
2018-11-10T05:48:54.840Z,17.43
2018-11-10T05:51:30.895Z,16.70
2018-11-10T05:54:05.931Z,16.13
2018-11-10T05:56:41.350Z,15.97
2018-11-10T05:59:16.814Z,17.63
2018-11-10T06:01:53.693Z,16.77
2018-11-10T06:04:29.749Z,18.07
2018-11-10T06:07:05.807Z,17.50
2018-11-10T06:09:40.650Z,17.93
2018-11-10T06:12:15.872Z,17.50
2018-11-10T06:14:53.982Z,17.47
2018-11-10T06:17:30.854Z,18.40
2018-11-10T06:20:05.894Z,18.47
2018-11-10T06:39:59.876Z,18.20
2018-11-10T06:42:36.752Z,16.27
2018-11-10T07:02:30.736Z,16.83
2018-11-10T07:05:07.813Z,17.53
2018-11-10T07:07:45.921Z,18.63
2018-11-10T07:10:21.980Z,19.03
2018-11-10T07:30:18.009Z,15.63
2018-11-10T07:50:17.932Z,15.70
2018-11-10T08:13:01.077Z,14.70
2018-11-10T08:15:38.979Z,14.70
2018-11-10T08:18:14.014Z,15.33
2018-11-10T08:38:18.853Z,12.23
2018-11-10T08:40:55.416Z,12.87
2018-11-10T09:00:49.917Z,10.37
2018-11-10T09:03:28.024Z,11.60
2018-11-10T09:06:06.435Z,11.10
2018-11-10T09:08:49.624Z,10.40
2018-11-10T09:11:38.938Z,11.27
2018-11-10T09:31:33.526Z,14.30
2018-11-10T09:34:09.788Z,14.40
2018-11-10T09:54:16.690Z,13.77
2018-11-10T09:56:51.911Z,15.73
2018-11-10T09:59:27.765Z,16.13
2018-11-10T10:02:05.039Z,17.50
2018-11-10T10:04:45.005Z,17.13
2018-11-10T10:07:21.057Z,16.37
2018-11-10T10:10:02.039Z,16.73
2018-11-10T10:12:37.068Z,16.43
2018-11-10T10:15:15.985Z,16.27
2018-11-10T10:17:51.841Z,16.70
2018-11-10T10:20:39.984Z,16.13
2018-11-10T10:23:17.060Z,16.43
2018-11-10T10:25:51.891Z,17.73
2018-11-10T10:28:27.218Z,16.27
2018-11-10T10:31:02.981Z,17.33
2018-11-10T10:33:38.221Z,15.57
2018-11-10T10:36:14.079Z,16.97
2018-11-10T10:39:01.405Z,16.10
2018-11-10T10:41:38.084Z,14.07
2018-11-10T10:44:18.632Z,14.63
2018-11-10T10:46:54.073Z,15.83
2018-11-10T10:49:30.335Z,15.93
2018-11-10T10:52:05.980Z,15.97
2018-11-10T10:54:49.012Z,15.63
2018-11-10T10:57:24.037Z,17.63
2018-11-10T11:00:00.101Z,15.87
2018-11-10T11:04:42.111Z,15.83
2018-11-10T11:07:18.978Z,15.20
2018-11-10T11:09:54.016Z,15.23
2018-11-10T11:12:29.461Z,14.97
2018-11-10T11:15:05.390Z,15.20
2018-11-10T11:17:41.508Z,15.23
2018-11-10T11:20:20.086Z,15.00
2018-11-10T11:22:55.119Z,15.07
2018-11-10T11:25:31.996Z,15.27
2018-11-10T11:28:08.465Z,14.70
2018-11-10T11:30:43.091Z,15.50
2018-11-10T11:33:18.125Z,15.47
2018-11-10T11:35:51.929Z,14.27
2018-11-10T11:38:26.970Z,15.67
2018-11-10T11:41:03.908Z,15.63
2018-11-10T11:43:40.102Z,16.07
2018-11-10T11:46:32.140Z,15.03
2018-11-10T11:49:10.034Z,15.37
2018-11-10T11:51:46.093Z,15.77
2018-11-10T11:54:22.148Z,14.90
2018-11-10T11:56:56.977Z,15.53
2018-11-10T11:59:33.034Z,15.03
2018-11-10T12:02:09.143Z,15.23
2018-11-10T12:04:45.150Z,15.13
2018-11-10T12:07:20.183Z,15.13
2018-11-10T12:09:55.220Z,14.37
2018-11-10T12:12:32.095Z,15.37
2018-11-10T12:15:08.203Z,14.70
2018-11-10T12:18:08.995Z,16.07
2018-11-10T12:20:44.913Z,15.53
2018-11-10T12:23:23.152Z,15.17
2018-11-10T12:25:59.210Z,15.60
2018-11-10T12:28:37.110Z,16.90
2018-11-10T12:31:13.165Z,16.97
2018-11-10T12:33:49.225Z,15.20
2018-11-10T12:36:27.333Z,16.43
2018-11-10T12:39:17.109Z,17.10
2018-11-10T12:41:53.167Z,16.47
2018-11-10T12:44:29.223Z,16.77
2018-11-10T12:47:10.198Z,16.30
2018-11-10T12:49:49.122Z,16.07
2018-11-10T12:52:26.210Z,16.47
2018-11-10T12:55:01.278Z,15.70
2018-11-10T12:57:35.250Z,14.93
2018-11-10T13:17:27.684Z,16.83
2018-11-10T13:37:22.197Z,16.13
2018-11-10T13:39:57.441Z,16.27
2018-11-10T13:42:33.669Z,14.83
2018-11-10T13:45:12.416Z,15.77
2018-11-10T13:48:05.281Z,15.10
2018-11-10T14:08:00.063Z,16.07
2018-11-10T14:10:58.641Z,16.57
2018-11-10T14:33:50.678Z,17.03
2018-11-10T14:53:44.591Z,16.23
2018-11-10T14:56:21.255Z,16.13
2018-11-10T15:19:03.590Z,18.50
2018-11-10T15:21:38.414Z,17.90
2018-11-10T15:24:14.472Z,16.73
2018-11-10T15:26:50.334Z,16.87
2018-11-10T15:46:44.516Z,14.07
2018-11-10T15:49:25.284Z,14.10
2018-11-10T15:52:01.136Z,13.63
2018-11-10T15:54:35.143Z,14.07
2018-11-10T15:57:12.244Z,14.43
2018-11-10T15:59:47.257Z,13.03
2018-11-10T16:02:22.496Z,12.13
2018-11-10T16:04:57.327Z,13.30
2018-11-10T16:07:35.025Z,13.47
2018-11-10T16:10:11.316Z,14.60
2018-11-10T16:13:17.737Z,14.17
2018-11-10T16:15:55.144Z,14.77
2018-11-10T16:18:32.022Z,15.43
2018-11-10T16:21:08.083Z,15.70
2018-11-10T16:23:43.318Z,14.60
2018-11-10T16:26:21.423Z,14.67
2018-11-10T16:28:57.479Z,15.17
2018-11-10T16:31:32.309Z,15.13
2018-11-10T16:34:12.052Z,14.90
2018-11-10T16:37:50.369Z,14.03
2018-11-10T16:40:28.272Z,14.57
2018-11-10T16:43:04.333Z,14.60
2018-11-10T16:45:40.385Z,13.17
2018-11-10T16:48:18.288Z,13.50
2018-11-10T17:08:42.212Z,17.30
2018-11-10T17:11:20.277Z,16.70
2018-11-10T17:31:16.309Z,18.17
2018-11-10T17:33:52.363Z,17.43
2018-11-10T17:53:45.321Z,47.47
2018-11-10T17:56:21.382Z,40.00
2018-11-10T17:58:55.399Z,23.27
2018-11-10T18:01:30.898Z,22.30
2018-11-10T18:04:06.859Z,18.33
2018-11-10T18:06:40.493Z,17.20
2018-11-10T18:09:16.344Z,17.60
2018-11-10T18:14:44.433Z,18.93
2018-11-10T18:34:38.419Z,16.27
2018-11-10T18:37:14.279Z,15.20
2018-11-10T18:57:07.532Z,15.97
2018-11-10T18:59:42.473Z,15.97
2018-11-10T19:02:20.369Z,16.20
2018-11-10T19:04:55.402Z,14.07
2018-11-10T19:07:31.460Z,12.13
2018-11-10T19:27:23.393Z,11.47
2018-11-10T19:30:00.485Z,11.30
2018-11-10T19:49:53.435Z,17.70
2018-11-10T19:52:27.442Z,17.77
2018-11-10T20:12:21.427Z,17.53
2018-11-10T20:14:57.486Z,19.30
2018-11-10T20:17:32.524Z,18.17
2018-11-10T20:20:08.374Z,17.87
2018-11-10T20:22:44.432Z,18.53
2018-11-10T20:42:42.311Z,18.10
2018-11-10T20:45:22.874Z,15.70
2018-11-10T21:05:17.466Z,12.77
2018-11-10T21:07:51.483Z,13.13
2018-11-10T21:10:26.977Z,13.03
2018-11-10T21:13:02.621Z,13.17
2018-11-10T21:15:39.449Z,13.37
2018-11-10T21:35:33.715Z,12.17
2018-11-10T21:38:09.497Z,12.10
2018-11-10T21:58:00.598Z,15.80
2018-11-10T22:00:37.277Z,16.33
2018-11-10T22:20:32.483Z,17.00
2018-11-10T22:23:09.639Z,16.87
2018-11-10T22:43:02.526Z,23.03
2018-11-10T22:45:37.562Z,20.43
2018-11-10T22:48:14.439Z,19.77
2018-11-10T23:08:08.622Z,17.30
2018-11-10T23:10:46.521Z,18.03
2018-11-10T23:30:49.516Z,17.67
2018-11-10T23:33:24.351Z,16.87
2018-11-10T23:53:18.327Z,17.83
2018-11-10T23:55:54.593Z,19.60
2018-11-10T23:58:30.861Z,19.50
